Time;durP1;ratioP1;P1;durP2;ratioP2;P2;SDS_P1;SDS_P2;PMS_P1;PMS_P2;Temp;Humidity;BMP_temperature;BMP_pressure;BME280_temperature;BME280_humidity;BME280_pressure;Samples;Min_cycle;Max_cycle;Signal;HPM_P1;HPM_P2
2021/04/16 00:00:33;;;;;;;22.13;13.48;;;;;;;15.32;50.23;100039.84;1729307;82;21176;-75
2021/04/16 00:03:01;;;;;;;24.27;13.35;;;;;;;15.33;50.26;100034.76;1737418;82;21102;-76
2021/04/16 00:05:28;;;;;;;16.87;11.83;;;;;;;15.30;50.41;100043.77;1741605;82;21121;-76
2021/04/16 00:07:55;;;;;;;;;;;;;;;15.27;50.48;100040.97;1797909;79;21154;-76
2021/04/16 00:10:37;;;;;;;24.37;14.95;;;;;;;15.28;50.46;100047.19;1793870;79;20288;-76
2021/04/16 00:13:06;;;;;;;29.25;17.95;;;;;;;15.28;50.38;100045.84;1798845;79;21836;-75
2021/04/16 00:15:34;;;;;;;;;;;;;;;15.15;50.68;100039.84;1730284;82;21181;-76
2021/04/16 00:18:03;;;;;;;;;;;;;;;15.16;50.86;100044.20;1798862;79;20239;-76
2021/04/16 00:20:32;;;;;;;29.35;17.37;;;;;;;15.13;50.93;100045.45;1791784;79;20225;-75
2021/04/16 00:22:59;;;;;;;34.70;19.17;;;;;;;15.06;51.08;100039.69;1728405;82;21214;-75
2021/04/16 00:25:29;;;;;;;26.95;17.02;;;;;;;15.08;51.13;100045.22;1730217;82;21576;-75
2021/04/16 00:27:56;;;;;;;25.62;15.45;;;;;;;15.15;51.07;100046.07;1776863;80;21133;-75
2021/04/16 00:30:44;;;;;;;26.80;14.40;;;;;;;15.33;50.68;100037.98;1720692;83;21169;-75
2021/04/16 00:33:11;;;;;;;18.10;11.60;;;;;;;15.36;50.58;100041.64;1777115;80;21054;-75
2021/04/16 00:35:40;;;;;;;20.45;12.63;;;;;;;15.51;50.27;100037.45;1721504;82;21177;-75
2021/04/16 00:38:08;;;;;;;21.40;12.88;;;;;;;15.57;50.21;100039.34;1775596;80;21176;-75
2021/04/16 00:40:47;;;;;;;19.17;12.03;;;;;;;15.63;50.06;100040.73;1721472;82;21257;-75
2021/04/16 00:43:18;;;;;;;18.32;11.65;;;;;;;15.65;50.02;100035.15;1777095;80;21149;-76
2021/04/16 00:45:45;;;;;;;21.77;13.05;;;;;;;15.76;49.75;100035.08;1721740;83;21162;-76
2021/04/16 00:48:25;;;;;;;;;;;;;;;15.56;50.20;100038.50;1779869;80;21070;-77
2021/04/16 00:50:54;;;;;;;22.58;14.33;;;;;;;15.59;50.14;100038.11;1735185;82;20233;-75
2021/04/16 00:53:22;;;;;;;17.05;11.03;;;;;;;15.46;50.33;100037.53;1712034;83;21597;-76
2021/04/16 00:55:50;;;;;;;16.82;11.00;;;;;;;15.37;50.51;100040.59;1690046;83;21552;-76
2021/04/16 00:58:21;;;;;;;17.55;10.80;;;;;;;15.34;50.66;100038.29;1716927;83;21201;-76
2021/04/16 01:00:49;;;;;;;15.05;10.20;;;;;;;15.33;50.74;100042.03;1774315;80;21141;-76
2021/04/16 01:03:18;;;;;;;18.02;11.18;;;;;;;15.31;50.80;100036.01;1774438;80;21121;-76
2021/04/16 01:05:46;;;;;;;15.00;10.75;;;;;;;15.29;50.88;100034.84;1774255;80;21177;-76
2021/04/16 01:08:15;;;;;;;14.80;10.68;;;;;;;15.31;50.96;100038.71;1774346;80;21133;-75
2021/04/16 01:10:43;;;;;;;14.68;10.75;;;;;;;15.31;50.96;100030.61;1781265;79;21122;-75
2021/04/16 01:13:10;;;;;;;;;;;;;;;15.30;50.94;100034.32;1800830;78;21115;-75
2021/04/16 01:15:39;;;;;;;18.37;10.50;;;;;;;15.26;50.98;100033.05;1793024;79;20215;-75
2021/04/16 01:18:11;;;;;;;19.90;11.55;;;;;;;15.22;51.07;100028.07;1776699;80;21181;-76
2021/04/16 01:20:43;;;;;;;25.55;15.23;;;;;;;15.24;51.20;100026.52;1787183;78;21548;-76
2021/04/16 01:23:46;;;;;;;27.62;17.07;;;;;;;15.28;51.21;100032.35;1778502;78;21161;-75
2021/04/16 01:26:17;;;;;;;30.75;17.95;;;;;;;15.31;51.14;100030.61;1788603;79;21169;-73
2021/04/16 01:28:45;;;;;;;23.45;14.95;;;;;;;15.35;51.12;100028.66;1715491;82;21162;-74
2021/04/16 01:31:17;;;;;;;21.95;14.28;;;;;;;15.37;51.08;100027.11;1708619;82;21137;-75
2021/04/16 01:33:45;;;;;;;18.00;11.03;;;;;;;15.53;50.71;100025.40;1787142;79;21098;-75
2021/04/16 01:36:18;;;;;;;14.83;9.65;;;;;;;15.38;51.00;100027.41;1752254;81;21139;-74
2021/04/16 01:38:46;;;;;;;18.12;10.48;;;;;;;15.37;51.08;100027.11;1786857;80;21173;-75
2021/04/16 01:41:14;;;;;;;14.25;9.55;;;;;;;15.39;51.19;100025.03;1752770;81;21115;-75
2021/04/16 01:43:44;;;;;;;16.85;11.10;;;;;;;15.39;51.11;100015.06;1791027;79;21094;-75
2021/04/16 01:46:16;;;;;;;12.45;8.55;;;;;;;15.39;51.16;100016.93;1773423;79;21134;-76
2021/04/16 01:48:57;;;;;;;14.30;9.78;;;;;;;15.41;51.17;100017.58;1797012;79;21138;-75
2021/04/16 01:51:29;;;;;;;16.67;9.85;;;;;;;15.46;51.07;100021.86;1720778;83;21220;-76
2021/04/16 01:54:11;;;;;;;14.70;9.60;;;;;;;15.48;51.01;100021.95;1776604;79;21418;-75
2021/04/16 01:56:39;;;;;;;14.40;9.30;;;;;;;15.52;50.90;100019.69;1730793;82;21194;-75
2021/04/16 01:59:08;;;;;;;15.10;8.50;;;;;;;15.52;50.83;100012.95;1749261;82;21170;-75
2021/04/16 02:01:36;;;;;;;12.73;8.13;;;;;;;15.48;50.80;100022.48;1803848;79;21138;-76
2021/04/16 02:04:04;;;;;;;10.98;8.15;;;;;;;15.46;50.83;100021.86;1730658;82;21657;-76
2021/04/16 02:06:34;;;;;;;10.68;7.65;;;;;;;15.47;50.78;100024.86;1749085;82;21642;-76
2021/04/16 02:09:09;;;;;;;12.33;7.90;;;;;;;15.45;50.79;100030.47;1749795;81;21102;-76
2021/04/16 02:11:37;;;;;;;18.17;8.08;;;;;;;15.47;50.73;100026.21;1804223;79;21110;-77
2021/04/16 02:14:12;;;;;;;16.12;7.72;;;;;;;15.42;50.82;100025.98;1730542;82;21170;-76
2021/04/16 02:16:42;;;;;;;9.75;6.97;;;;;;;15.45;50.73;100025.08;1750473;82;21134;-75
2021/04/16 02:19:10;;;;;;;11.35;7.30;;;;;;;15.41;50.85;100029.20;1730599;81;21083;-75
2021/04/16 02:21:37;;;;;;;10.30;6.72;;;;;;;15.55;50.61;100024.70;1749080;82;21221;-77
2021/04/16 02:24:08;;;;;;;10.78;6.47;;;;;;;15.56;50.55;100016.91;1802728;79;21747;-76
2021/04/16 02:26:35;;;;;;;10.68;7.22;;;;;;;15.40;50.86;100022.67;1707422;83;21221;-75
2021/04/16 02:29:06;;;;;;;11.45;7.62;;;;;;;15.36;51.04;100021.40;1729495;83;21539;-76
2021/04/16 02:31:33;;;;;;;11.33;7.87;;;;;;;15.38;50.95;100016.63;1729646;83;21170;-77
2021/04/16 02:34:02;;;;;;;12.07;7.03;;;;;;;15.37;50.96;100025.23;1748917;82;21201;-77
2021/04/16 02:36:29;;;;;;;12.50;7.25;;;;;;;15.49;50.74;100020.12;1699414;82;21216;-77
2021/04/16 02:38:58;;;;;;;12.50;7.15;;;;;;;15.58;50.48;100018.91;1756822;81;21148;-76
2021/04/16 02:41:25;;;;;;;10.45;7.85;;;;;;;15.61;50.49;100021.19;1806144;79;21114;-75
2021/04/16 02:43:53;;;;;;;12.23;8.68;;;;;;;15.48;50.71;100020.61;1794567;78;21481;-76
2021/04/16 02:46:20;;;;;;;16.17;9.90;;;;;;;15.54;50.57;100016.29;1753779;80;28703;-75
2021/04/16 02:48:49;;;;;;;14.90;9.08;;;;;;;15.52;50.58;100016.16;1755336;81;21089;-75
2021/04/16 02:51:17;;;;;;;11.70;7.12;;;;;;;15.42;50.86;100023.28;1755524;81;21121;-76
2021/04/16 02:53:44;;;;;;;10.38;6.20;;;;;;;15.37;50.94;100024.41;1737788;81;21113;-76
2021/04/16 02:56:11;;;;;;;12.55;6.58;;;;;;;15.47;50.68;100027.56;1777049;79;21156;-76
2021/04/16 02:58:39;;;;;;;11.65;6.95;;;;;;;15.22;51.14;100028.07;1721685;83;21633;-76
2021/04/16 03:01:06;;;;;;;13.58;7.87;;;;;;;15.13;51.46;100023.87;1751481;80;21177;-74
2021/04/16 03:03:35;;;;;;;;;;;;;;;15.40;50.99;100026.72;1775690;80;21612;-74
2021/04/16 03:06:06;;;;;;;12.43;7.25;;;;;;;15.18;51.51;100024.10;1800378;79;20280;-76
2021/04/16 03:08:34;;;;;;;14.73;8.23;;;;;;;15.17;51.52;100025.14;1783283;79;21153;-77
2021/04/16 03:11:05;;;;;;;13.55;7.60;;;;;;;15.13;51.65;100032.48;1790986;79;21205;-76
2021/04/16 03:13:33;;;;;;;11.05;7.50;;;;;;;15.13;51.61;100029.27;1720856;82;21187;-76
2021/04/16 03:16:02;;;;;;;14.10;7.67;;;;;;;15.09;51.84;100027.98;1776760;80;21121;-76
2021/04/16 03:18:30;;;;;;;9.98;7.22;;;;;;;15.11;51.83;100034.00;1721078;83;21644;-74
2021/04/16 03:20:57;;;;;;;10.32;7.30;;;;;;;15.07;51.93;100030.03;1797587;79;21201;-74
2021/04/16 03:23:24;;;;;;;12.58;8.60;;;;;;;15.07;51.86;100027.34;1772751;80;21201;-75
2021/04/16 03:25:52;;;;;;;14.58;8.35;;;;;;;15.16;51.72;100030.71;1800192;79;21562;-75
2021/04/16 03:28:21;;;;;;;10.75;7.00;;;;;;;15.17;51.79;100032.38;1729808;83;21134;-76
2021/04/16 03:30:52;;;;;;;9.28;7.03;;;;;;;15.14;51.93;100030.92;1729833;82;21145;-75
2021/04/16 03:33:20;;;;;;;9.63;6.65;;;;;;;15.09;52.14;100030.69;1744356;80;21170;-76
2021/04/16 03:35:49;;;;;;;11.10;7.00;;;;;;;15.18;51.90;100032.20;1701335;82;21208;-75
2021/04/16 03:38:19;;;;;;;7.95;6.62;;;;;;;15.20;51.85;100041.42;1720508;83;21218;-74
2021/04/16 03:40:47;;;;;;;7.42;5.72;;;;;;;15.20;51.84;100031.98;1720989;82;21233;-75
2021/04/16 03:43:14;;;;;;;8.75;5.72;;;;;;;15.14;52.00;100043.58;1751951;80;21428;-75
2021/04/16 03:45:42;;;;;;;6.28;5.65;;;;;;;15.13;52.08;100046.80;1788249;77;21111;-76
2021/04/16 03:48:11;;;;;;;9.55;6.58;;;;;;;15.18;52.07;100049.73;1790568;78;21186;-77
2021/04/16 03:50:40;;;;;;;10.38;7.85;;;;;;;15.19;52.06;100051.91;1783898;78;21656;-75
2021/04/16 03:53:07;;;;;;;11.85;7.75;;;;;;;15.17;52.01;100054.81;1782898;79;21192;-75
2021/04/16 03:55:36;;;;;;;11.78;7.33;;;;;;;15.15;52.05;100052.81;1728315;81;21184;-75
2021/04/16 03:58:07;;;;;;;7.85;6.25;;;;;;;15.10;52.15;100055.28;1753086;80;21184;-75
2021/04/16 04:00:37;;;;;;;8.35;6.35;;;;;;;15.09;52.24;100053.61;1731272;82;21168;-74
2021/04/16 04:03:06;;;;;;;11.55;6.60;;;;;;;15.02;52.44;100053.24;1721225;82;21204;-77
2021/04/16 04:05:36;;;;;;;7.10;5.72;;;;;;;15.01;52.47;100049.72;1771237;79;21117;-74
2021/04/16 04:08:03;;;;;;;;;;;;;;;15.04;52.48;100062.82;1775206;79;21157;-76
2021/04/16 04:10:39;;;;;;;9.50;5.60;;;;;;;15.07;52.43;100065.10;1767683;80;20695;-76
2021/04/16 04:13:07;;;;;;;14.75;6.47;;;;;;;15.04;52.47;100065.52;1793190;79;21204;-77
2021/04/16 04:15:34;;;;;;;14.43;6.12;;;;;;;15.12;52.37;100068.55;1726240;82;21134;-74
2021/04/16 04:18:05;;;;;;;6.42;5.28;;;;;;;15.19;52.21;100063.53;1688412;81;21598;-75
2021/04/16 04:20:33;;;;;;;9.58;6.08;;;;;;;15.27;52.13;100067.12;1723077;82;21704;-74
2021/04/16 04:23:01;;;;;;;11.53;6.85;;;;;;;15.30;52.07;100067.53;1719871;83;21467;-76
2021/04/16 04:25:29;;;;;;;8.35;5.97;;;;;;;15.27;52.19;100067.95;1704404;81;21172;-75
2021/04/16 04:27:57;;;;;;;13.20;6.67;;;;;;;15.32;52.10;100067.35;1792163;79;21126;-76
2021/04/16 04:30:28;;;;;;;7.67;5.40;;;;;;;15.32;52.14;100071.40;1773752;79;21152;-75
2021/04/16 04:32:55;;;;;;;12.18;5.83;;;;;;;15.30;52.15;100074.80;1786506;79;21098;-74
2021/04/16 04:35:23;;;;;;;12.55;7.08;;;;;;;15.14;52.46;100073.26;1729979;82;21589;-76
2021/04/16 04:37:50;;;;;;;13.35;6.35;;;;;;;15.13;52.61;100075.13;1727384;82;21145;-76
2021/04/16 04:40:18;;;;;;;12.75;6.80;;;;;;;15.23;52.47;100071.55;1727837;82;21130;-77
2021/04/16 04:42:46;;;;;;;9.23;7.45;;;;;;;15.26;52.54;100071.69;1733463;82;21442;-77
2021/04/16 04:45:13;;;;;;;11.65;6.25;;;;;;;15.33;52.39;100078.45;1720248;82;21133;-76
2021/04/16 04:47:41;;;;;;;11.18;6.50;;;;;;;15.32;52.38;100077.63;1795039;79;21149;-76
2021/04/16 04:50:09;;;;;;;13.25;7.67;;;;;;;15.35;52.25;100079.08;1786977;78;21252;-76
2021/04/16 04:52:37;;;;;;;21.20;8.95;;;;;;;15.23;52.53;100072.90;1749662;81;21220;-74
2021/04/16 04:55:09;;;;;;;19.27;9.50;;;;;;;15.26;52.44;100081.13;1782265;78;21164;-76
2021/04/16 04:57:37;;;;;;;24.00;10.28;;;;;;;15.33;52.33;100078.45;1795047;78;21204;-76
2021/04/16 05:00:06;;;;;;;;;;;;;;;15.31;52.37;100073.79;1784261;78;21173;-76
2021/04/16 05:02:33;;;;;;;20.15;7.78;;;;;;;15.21;52.63;100080.38;1790459;78;20693;-76
2021/04/16 05:05:01;;;;;;;17.07;7.50;;;;;;;15.21;52.62;100077.67;1802067;79;21166;-76
2021/04/16 05:07:28;;;;;;;;;;;;;;;15.20;52.66;100077.85;1804022;79;21192;-78
2021/04/16 05:09:55;;;;;;;16.10;8.25;;;;;;;15.21;52.74;100078.16;1791515;78;20295;-75
2021/04/16 05:12:23;;;;;;;13.75;8.45;;;;;;;15.16;52.84;100078.75;1731074;82;21561;-74
2021/04/16 05:14:50;;;;;;;12.55;7.90;;;;;;;15.17;52.90;100079.58;1754842;80;21215;-74
2021/04/16 05:17:17;;;;;;;11.30;7.58;;;;;;;14.95;53.51;100084.22;1793652;78;21582;-77
2021/04/16 05:19:45;;;;;;;11.45;7.35;;;;;;;14.95;53.77;100082.88;1775143;78;21739;-76
2021/04/16 05:22:15;;;;;;;9.68;6.45;;;;;;;14.97;53.89;100085.67;1760971;78;21193;-79
2021/04/16 05:24:43;;;;;;;9.40;6.12;;;;;;;14.97;54.03;100085.67;1752675;78;21114;-75
2021/04/16 05:27:15;;;;;;;10.65;7.65;;;;;;;15.09;53.95;100084.64;1773141;78;21120;-76
2021/04/16 05:29:42;;;;;;;8.70;6.65;;;;;;;15.16;53.75;100078.75;1724377;80;21165;-77
2021/04/16 05:32:09;;;;;;;;;;;;;;;15.16;53.93;100080.10;1759980;78;21680;-77
2021/04/16 05:34:35;;;;;;;10.45;6.53;;;;;;;15.18;53.91;100078.06;1774054;78;20286;-76
2021/04/16 05:37:03;;;;;;;;;;;;;;;15.21;53.95;100077.67;1777098;79;21127;-75
2021/04/16 05:39:30;;;;;;;10.18;6.80;;;;;;;15.27;53.94;100081.95;1773058;79;20250;-78
2021/04/16 05:41:57;;;;;;;10.10;7.90;;;;;;;15.24;54.04;100077.78;1781559;79;21263;-76
2021/04/16 05:44:24;;;;;;;8.80;6.55;;;;;;;15.26;54.17;100082.97;1771518;79;21078;-75
2021/04/16 05:46:52;;;;;;;9.80;6.78;;;;;;;15.28;54.15;100079.05;1771463;79;21142;-76
2021/04/16 05:49:19;;;;;;;8.05;6.62;;;;;;;15.29;54.19;100080.71;1802096;79;21118;-76
2021/04/16 05:51:47;;;;;;;11.03;7.55;;;;;;;15.35;54.16;100085.34;1803195;79;21557;-77
2021/04/16 05:54:14;;;;;;;9.13;7.20;;;;;;;15.39;54.11;100083.05;1785006;79;21109;-77
2021/04/16 05:56:41;;;;;;;10.93;8.10;;;;;;;15.41;54.11;100086.40;1784790;79;21145;-76
2021/04/16 05:59:08;;;;;;;10.28;7.12;;;;;;;15.26;54.37;100082.48;1777985;79;21113;-76
2021/04/16 06:01:35;;;;;;;9.20;7.80;;;;;;;15.39;54.18;100084.40;1781548;79;26220;-77
2021/04/16 06:04:04;;;;;;;9.48;7.47;;;;;;;15.44;53.98;100088.19;1724728;82;21152;-76
2021/04/16 06:06:31;;;;;;;9.28;8.00;;;;;;;15.47;54.02;100090.99;1772800;79;21106;-76
2021/04/16 06:09:00;;;;;;;13.22;8.53;;;;;;;15.33;54.24;100091.95;1694381;81;21149;-74
2021/04/16 06:11:29;;;;;;;9.43;7.78;;;;;;;15.29;54.31;100083.93;1713658;82;21560;-75
2021/04/16 06:13:56;;;;;;;9.60;7.17;;;;;;;15.30;54.34;100088.28;1727398;81;21151;-75
2021/04/16 06:16:23;;;;;;;;;;;;;;;15.29;54.41;100084.76;1715734;82;21129;-74
2021/04/16 06:18:51;;;;;;;9.38;7.05;;;;;;;15.26;54.36;100086.52;1719437;83;20282;-76
2021/04/16 06:21:20;;;;;;;14.15;10.80;;;;;;;15.22;54.36;100092.83;1782669;78;21117;-74
2021/04/16 06:23:47;;;;;;;11.20;9.88;;;;;;;15.21;54.32;100088.47;1781123;79;21597;-75
2021/04/16 06:26:13;;;;;;;;;;;;;;;15.22;54.49;100095.52;1787353;78;21644;-76
2021/04/16 06:28:45;;;;;;;19.73;11.68;;;;;;;15.29;54.54;100097.42;1752375;79;20242;-74
2021/04/16 06:31:12;;;;;;;20.25;12.65;;;;;;;15.29;54.61;100101.47;1791793;79;21109;-75
2021/04/16 06:33:40;;;;;;;19.82;14.33;;;;;;;15.29;54.68;100102.81;1787797;79;21094;-77
2021/04/16 06:36:10;;;;;;;21.62;16.27;;;;;;;15.32;54.71;100105.13;1789771;79;21154;-75
2021/04/16 06:38:42;;;;;;;16.60;12.95;;;;;;;15.37;54.75;100106.72;1781422;78;21195;-76
2021/04/16 06:41:23;;;;;;;13.88;10.32;;;;;;;15.44;54.61;100104.39;1780999;78;21562;-74
2021/04/16 06:44:06;;;;;;;17.75;11.73;;;;;;;15.53;54.45;100103.69;1780769;79;21114;-76
2021/04/16 06:46:39;;;;;;;16.25;12.28;;;;;;;15.60;54.40;100105.91;1734646;80;21113;-76
2021/04/16 06:49:17;;;;;;;20.17;15.45;;;;;;;15.64;54.15;100107.22;1785206;79;21097;-75
2021/04/16 06:52:25;;;;;;;14.33;12.15;;;;;;;15.63;54.09;100109.58;1735335;82;21166;-75
2021/04/16 06:55:13;;;;;;;16.52;12.60;;;;;;;15.62;53.92;100113.28;1719502;82;21165;-75
2021/04/16 06:58:10;;;;;;;18.62;13.45;;;;;;;15.59;53.90;100106.95;1706428;82;21134;-75
2021/04/16 07:00:57;;;;;;;16.55;12.45;;;;;;;15.60;53.92;100108.61;1738579;80;21613;-75
2021/04/16 07:03:30;;;;;;;13.50;10.90;;;;;;;15.65;53.95;100106.18;1771021;79;21101;-73
2021/04/16 07:06:09;;;;;;;15.83;12.05;;;;;;;15.73;53.68;100102.48;1783104;78;21141;-75
2021/04/16 07:08:41;;;;;;;16.02;12.25;;;;;;;15.77;53.57;100101.58;1801781;79;21145;-75
2021/04/16 07:11:26;;;;;;;17.92;11.28;;;;;;;15.79;53.41;100106.25;1788646;78;21579;-75
2021/04/16 07:13:53;;;;;;;14.07;11.12;;;;;;;15.84;53.47;100114.58;1782524;78;21080;-75
2021/04/16 07:16:23;;;;;;;18.45;13.10;;;;;;;15.74;53.40;100117.65;1785845;78;21448;-75
2021/04/16 07:18:57;;;;;;;19.23;14.73;;;;;;;15.70;52.86;100107.76;1796928;78;21109;-75
2021/04/16 07:21:26;;;;;;;24.70;17.57;;;;;;;15.61;53.01;100109.45;1776976;79;21126;-75
2021/04/16 07:24:02;;;;;;;18.52;14.85;;;;;;;15.56;53.10;100117.31;1780797;79;21604;-74
2021/04/16 07:26:46;;;;;;;17.50;14.05;;;;;;;15.48;53.13;100116.95;1789926;79;21101;-76
2021/04/16 07:29:41;;;;;;;18.98;14.87;;;;;;;15.39;53.42;100116.78;1796976;79;21082;-75
2021/04/16 07:32:07;;;;;;;19.80;16.20;;;;;;;15.38;53.46;100120.52;1771229;80;21138;-75
2021/04/16 07:34:37;;;;;;;22.05;17.20;;;;;;;15.44;53.46;100123.77;1791875;79;21113;-76
2021/04/16 07:37:12;;;;;;;19.62;15.53;;;;;;;15.46;53.38;100116.32;1791104;79;21101;-76
2021/04/16 07:39:51;;;;;;;17.20;13.65;;;;;;;15.47;53.45;100120.69;1794801;79;21090;-76
2021/04/16 07:42:22;;;;;;;19.80;14.00;;;;;;;15.57;53.00;100120.32;1776641;79;21129;-75
2021/04/16 07:45:04;;;;;;;19.80;13.93;;;;;;;15.56;52.79;100118.14;1781636;79;21141;-74
2021/04/16 07:47:34;;;;;;;18.73;13.45;;;;;;;15.59;52.92;100120.45;1783087;79;21113;-75
2021/04/16 07:50:30;;;;;;;17.60;13.62;;;;;;;15.65;52.69;100121.55;1786959;79;21130;-75
2021/04/16 07:53:44;;;;;;;17.85;13.53;;;;;;;15.64;52.62;100120.72;1826613;76;22332;-73
2021/04/16 07:56:22;;;;;;;18.23;13.80;;;;;;;15.59;52.90;100121.80;1793302;77;21242;-74
2021/04/16 07:59:05;;;;;;;18.92;15.20;;;;;;;15.68;53.01;100123.34;1794642;77;21186;-73
2021/04/16 08:01:34;;;;;;;19.17;14.83;;;;;;;15.72;53.14;100126.48;1789269;79;21619;-73
2021/04/16 08:04:06;;;;;;;18.30;13.60;;;;;;;15.79;52.84;100125.16;1782962;77;21096;-75
2021/04/16 08:06:44;;;;;;;16.73;13.00;;;;;;;15.79;52.74;100126.50;1779777;80;21114;-76
2021/04/16 08:09:27;;;;;;;;;;;;;;;15.73;52.84;100119.52;1810674;79;20950;-74
2021/04/16 08:12:04;;;;;;;17.98;13.38;;;;;;;15.71;52.68;100113.98;1828980;77;20174;-76
2021/04/16 08:14:33;;;;;;;14.03;11.35;;;;;;;15.62;52.91;100117.33;1806500;79;21120;-76
2021/04/16 08:17:07;;;;;;;18.65;12.60;;;;;;;15.86;52.40;100117.92;1798774;78;21127;-74
2021/04/16 08:19:38;;;;;;;12.90;10.15;;;;;;;15.72;52.56;100114.33;1802563;78;21093;-75
2021/04/16 08:22:31;;;;;;;18.40;12.33;;;;;;;15.73;52.49;100111.42;1795720;77;21112;-75
2021/04/16 08:25:12;;;;;;;15.93;12.85;;;;;;;15.76;52.68;100113.39;1793364;77;21175;-75
2021/04/16 08:28:01;;;;;;;19.57;13.35;;;;;;;15.77;52.76;100115.08;1807687;78;21165;-76
2021/04/16 08:30:55;;;;;;;16.02;11.33;;;;;;;15.80;53.03;100114.66;1789900;78;21116;-74
2021/04/16 08:33:41;;;;;;;13.93;11.33;;;;;;;15.87;53.12;100115.02;1797726;77;21695;-76
2021/04/16 08:36:36;;;;;;;16.55;12.78;;;;;;;15.98;53.11;100114.42;1792679;79;21135;-75
2021/04/16 08:39:22;;;;;;;18.75;13.60;;;;;;;16.24;52.52;100114.20;1795501;79;21178;-78
2021/04/16 08:41:58;;;;;;;20.43;12.75;;;;;;;16.31;52.34;100111.55;1800095;79;21127;-75
2021/04/16 08:44:26;;;;;;;13.45;9.40;;;;;;;16.34;51.90;100119.22;1793408;78;21107;-75
2021/04/16 08:46:58;;;;;;;15.85;10.65;;;;;;;16.30;51.47;100112.03;1770668;79;21130;-76
2021/04/16 08:49:32;;;;;;;16.23;12.60;;;;;;;16.22;51.40;100113.07;1771638;79;21096;-77
2021/04/16 08:52:18;;;;;;;17.95;13.70;;;;;;;16.17;51.67;100115.55;1776261;79;21128;-75
2021/04/16 08:54:47;;;;;;;14.25;10.23;;;;;;;16.24;51.67;100111.51;1814285;77;21006;-74
2021/04/16 08:57:31;;;;;;;11.50;8.08;;;;;;;16.37;51.43;100113.42;1797333;78;21449;-75
2021/04/16 09:00:09;;;;;;;8.40;6.70;;;;;;;16.16;51.92;100112.52;1798082;78;21104;-74
2021/04/16 09:02:47;;;;;;;7.47;5.62;;;;;;;16.22;51.99;100115.78;1768405;80;21856;-75
2021/04/16 09:05:22;;;;;;;5.67;4.95;;;;;;;16.26;52.01;100110.80;1802889;78;21358;-74
2021/04/16 09:08:08;;;;;;;9.35;6.62;;;;;;;16.32;52.07;100104.58;1793461;77;21100;-75
2021/04/16 09:10:47;;;;;;;18.80;11.95;;;;;;;16.53;51.73;100108.97;1774258;80;21365;-75
2021/04/16 09:13:44;;;;;;;14.63;9.63;;;;;;;16.62;51.46;100106.41;1766344;79;21451;-75
2021/04/16 09:16:20;;;;;;;8.48;6.47;;;;;;;16.63;51.21;100111.30;1789397;78;21101;-76
2021/04/16 09:18:51;;;;;;;7.55;5.08;;;;;;;16.59;51.29;100106.81;1800441;79;21116;-73
2021/04/16 09:21:26;;;;;;;6.83;4.90;;;;;;;16.62;51.01;100110.47;1790237;79;21144;-75
2021/04/16 09:24:01;;;;;;;7.47;5.07;;;;;;;16.67;50.84;100105.78;1782984;79;21108;-75
2021/04/16 09:26:50;;;;;;;6.75;5.42;;;;;;;16.71;50.79;100105.66;1785406;78;21559;-75
2021/04/16 09:29:33;;;;;;;5.28;4.12;;;;;;;16.78;50.64;100103.01;1793153;79;21152;-75
2021/04/16 09:32:04;;;;;;;8.50;4.70;;;;;;;16.79;50.43;100110.08;1787696;77;21192;-75
2021/04/16 09:34:50;;;;;;;4.97;3.72;;;;;;;16.66;50.61;100100.05;1812324;78;21121;-75
2021/04/16 09:37:33;;;;;;;8.45;5.00;;;;;;;16.66;50.54;100100.05;1812309;77;21803;-75
2021/04/16 09:40:06;;;;;;;5.72;4.15;;;;;;;16.59;50.53;100100.57;1790415;77;21141;-77
2021/04/16 09:42:46;;;;;;;4.97;3.85;;;;;;;16.53;50.56;100104.91;1799237;79;21366;-76
2021/04/16 09:45:24;;;;;;;5.20;3.87;;;;;;;16.42;50.69;100109.58;1793644;77;21454;-75
2021/04/16 09:47:53;;;;;;;7.08;4.92;;;;;;;16.35;51.01;100110.07;1794090;79;21334;-76
2021/04/16 09:50:28;;;;;;;16.02;8.28;;;;;;;16.21;51.80;100098.39;1797936;78;21132;-75
2021/04/16 09:53:35;;;;;;;11.03;7.20;;;;;;;16.16;52.45;100115.73;1811862;77;21105;-75
2021/04/16 09:56:15;;;;;;;34.60;13.35;;;;;;;16.10;52.62;100119.27;1795233;77;21097;-77
2021/04/16 09:58:59;;;;;;;90.00;25.97;;;;;;;15.99;52.52;100117.98;1801278;77;21152;-76
2021/04/16 10:01:27;;;;;;;108.55;29.52;;;;;;;15.87;53.14;100123.11;1797183;78;21686;-78
2021/04/16 10:04:07;;;;;;;95.05;27.20;;;;;;;15.97;52.95;100130.84;1801540;77;21651;-76
2021/04/16 10:06:40;;;;;;;72.90;22.02;;;;;;;16.03;52.78;100119.73;1797626;77;21025;-75
2021/04/16 10:09:26;;;;;;;54.42;18.70;;;;;;;16.08;52.34;100107.81;1795963;79;21116;-77
2021/04/16 10:12:14;;;;;;;49.13;20.27;;;;;;;16.12;52.16;100104.50;1789260;77;21137;-77
2021/04/16 10:14:43;;;;;;;40.98;17.17;;;;;;;16.15;51.91;100110.86;1799231;77;21634;-76
2021/04/16 10:17:19;;;;;;;40.35;19.57;;;;;;;16.23;52.15;100107.14;1794826;77;21133;-76
2021/04/16 10:19:53;;;;;;;43.85;21.57;;;;;;;16.32;51.94;100113.20;1793152;77;21112;-75
2021/04/16 10:22:28;;;;;;;47.43;23.75;;;;;;;16.38;51.78;100111.85;1795719;79;21093;-76
2021/04/16 10:37:18;;;;;;;28.40;15.63;;;;;;;16.75;51.59;100101.54;1829223;77;21542;-76
2021/04/16 11:28:45;;;;;;;1.95;1.50;;;;;;;15.54;51.58;100207.13;1775678;77;21200;-76
2021/04/16 12:41:26;;;;;;;1.55;0.93;;;;;;;13.89;51.92;100207.81;1742726;81;21731;-78
2021/04/16 12:43:54;;;;;;;1.72;1.62;;;;;;;13.91;51.86;100209.82;1755628;81;21175;-77
2021/04/16 12:46:25;;;;;;;3.02;2.30;;;;;;;13.87;51.70;100208.52;1725905;81;21227;-77
2021/04/16 12:48:53;;;;;;;3.35;2.02;;;;;;;13.84;51.96;100233.11;1737831;80;21446;-77
2021/04/16 12:51:20;;;;;;;4.67;2.22;;;;;;;13.85;51.85;100212.41;1733740;82;21207;-79
2021/04/16 12:53:47;;;;;;;3.27;1.80;;;;;;;13.88;51.76;100210.19;1747746;79;21207;-76
2021/04/16 12:56:19;;;;;;;1.72;1.27;;;;;;;13.98;51.98;100211.25;1762521;81;21210;-79
2021/04/16 12:58:46;;;;;;;3.08;2.05;;;;;;;14.14;51.75;100220.48;1745759;81;21223;-76
2021/04/16 13:01:24;;;;;;;3.72;2.10;;;;;;;14.26;51.79;100218.17;1733456;82;21190;-76
2021/04/16 13:03:52;;;;;;;3.60;1.62;;;;;;;14.33;50.48;100220.93;1753708;79;21157;-76
2021/04/16 13:06:26;;;;;;;;;;;;;;;14.23;50.69;100217.70;1756469;79;21107;-76
2021/04/16 13:08:53;;;;;;;1.90;1.42;;;;;;;14.14;50.18;100217.80;1749796;81;20165;-75
2021/04/16 13:11:22;;;;;;;5.50;1.90;;;;;;;14.06;50.61;100215.20;1744359;79;21025;-76
2021/04/16 13:13:51;;;;;;;4.30;1.80;;;;;;;14.08;50.69;100206.92;1726752;81;21589;-77
2021/04/16 13:16:18;;;;;;;8.18;1.80;;;;;;;14.10;50.44;100229.96;1744612;81;21269;-77
2021/04/16 13:18:49;;;;;;;4.33;1.90;;;;;;;14.07;50.46;100228.98;1742478;80;21184;-76
2021/04/16 13:21:35;;;;;;;2.45;1.80;;;;;;;14.03;50.50;100211.52;1741000;79;21251;-76
2021/04/16 13:24:05;;;;;;;1.37;1.12;;;;;;;14.09;50.50;100233.69;1741184;81;21215;-75
2021/04/16 13:26:32;;;;;;;1.90;1.30;;;;;;;14.05;49.93;100229.69;1757254;81;21655;-77
2021/04/16 13:29:00;;;;;;;4.20;2.17;;;;;;;13.98;49.77;100231.44;1757096;81;21212;-76
2021/04/16 13:31:30;;;;;;;2.95;1.95;;;;;;;13.89;49.80;100227.17;1730918;82;21197;-77
2021/04/16 13:33:58;;;;;;;3.45;1.72;;;;;;;13.84;49.82;100243.05;1755670;81;21148;-76
2021/04/16 13:36:30;;;;;;;3.20;1.87;;;;;;;13.70;49.88;100241.50;1746862;80;21097;-77
2021/04/16 13:38:58;;;;;;;2.05;1.72;;;;;;;13.64;50.28;100229.30;1750721;80;21185;-77
2021/04/16 13:41:26;;;;;;;2.40;1.37;;;;;;;13.67;50.11;100249.96;1735958;81;21112;-77
2021/04/16 13:43:53;;;;;;;;;;;;;;;13.70;49.70;100247.39;1744771;81;21097;-77
2021/04/16 13:46:23;;;;;;;9.45;5.03;;;;;;;13.73;50.18;100243.52;1748049;81;20183;-77
2021/04/16 13:48:53;;;;;;;15.93;6.58;;;;;;;13.81;50.18;100242.09;1751549;81;21545;-76
2021/04/16 13:51:23;;;;;;;6.83;3.47;;;;;;;13.95;50.13;100243.95;1743165;80;21188;-77
2021/04/16 13:53:50;;;;;;;4.87;2.60;;;;;;;14.07;49.71;100234.36;1748403;81;21682;-76